Time;durP1;ratioP1;P1;durP2;ratioP2;P2;SDS_P1;SDS_P2;PMS_P1;PMS_P2;Temp;Humidity;BMP_temperature;BMP_pressure;BME280_temperature;BME280_humidity;BME280_pressure;Samples;Min_cycle;Max_cycle;Signal;HPM_P1;HPM_P2
2023/04/10 00:09:22;;;;;;;16.47;10.13;;;7.60;77.40;;;;;;21162777;28;20252;-66
2023/04/10 00:19:24;;;;;;;20.17;10.43;;;7.50;77.90;;;;;;21177539;28;20236;-66
2023/04/10 00:29:26;;;;;;;13.63;9.83;;;7.40;78.50;;;;;;21176607;28;20566;-66
2023/04/10 00:39:27;;;;;;;18.57;11.77;;;7.40;78.90;;;;;;21176001;28;20310;-66
2023/04/10 00:49:30;;;;;;;14.63;9.23;;;7.30;79.30;;;;;;21174872;28;20202;-67
2023/04/10 00:59:32;;;;;;;12.27;9.17;;;7.10;80.30;;;;;;21174242;28;20231;-68
2023/04/10 01:09:43;;;;;;;15.10;10.50;;;7.10;80.70;;;;;;21173447;28;20236;-67
2023/04/10 01:20:15;;;;;;;16.97;10.37;;;6.90;81.20;;;;;;21172036;28;20237;-66
2023/04/10 01:30:20;;;;;;;15.27;9.93;;;6.90;81.70;;;;;;21171671;28;20212;-66
2023/04/10 01:40:25;;;;;;;13.87;9.57;;;6.70;82.40;;;;;;21170875;28;20295;-67
2023/04/10 01:50:28;;;;;;;16.23;10.23;;;6.60;82.90;;;;;;21170032;28;20213;-69
2023/04/10 02:00:37;;;;;;;15.23;9.63;;;6.40;83.20;;;;;;21168857;28;20233;-69
2023/04/10 02:11:00;;;;;;;16.90;11.13;;;6.60;83.80;;;;;;21168583;28;20594;-70
2023/04/10 02:21:02;;;;;;;16.97;10.90;;;6.50;83.80;;;;;;21167611;28;20248;-67
2023/04/10 02:31:05;;;;;;;14.77;9.80;;;6.30;84.50;;;;;;21167065;28;20203;-68
2023/04/10 02:41:06;;;;;;;15.00;10.03;;;6.10;85.00;;;;;;21165840;28;20230;-67
2023/04/10 02:51:09;;;;;;;14.13;9.97;;;;;;;;;;21165370;28;20207;-71
2023/04/10 03:01:11;;;;;;;15.27;9.50;;;6.00;85.60;;;;;;21164997;28;20231;-68
2023/04/10 03:11:13;;;;;;;15.10;10.23;;;6.00;85.70;;;;;;21164175;28;20263;-66
2023/04/10 03:21:15;;;;;;;16.17;10.27;;;6.00;86.00;;;;;;21163420;28;20243;-67
2023/04/10 03:31:17;;;;;;;16.37;10.13;;;5.80;86.30;;;;;;21162924;28;20204;-66
2023/04/10 03:41:18;;;;;;;15.60;10.80;;;5.80;87.00;;;;;;21163045;28;20232;-66
2023/04/10 03:51:22;;;;;;;17.53;11.00;;;5.50;87.20;;;;;;21177066;28;20203;-67
2023/04/10 04:01:24;;;;;;;18.57;11.83;;;5.40;88.10;;;;;;21178674;28;20231;-67
2023/04/10 04:11:26;;;;;;;16.33;10.97;;;5.50;88.30;;;;;;21178199;28;20303;-67
2023/04/10 04:21:28;;;;;;;14.33;10.07;;;5.40;88.70;;;;;;21177232;28;20288;-67
2023/04/10 04:31:31;;;;;;;16.20;10.83;;;5.30;89.00;;;;;;21176431;28;20263;-66
2023/04/10 04:41:33;;;;;;;16.03;10.00;;;5.20;89.50;;;;;;21175953;28;20716;-66
2023/04/10 04:51:36;;;;;;;15.30;9.93;;;5.20;89.80;;;;;;21174824;28;20565;-67
2023/04/10 05:01:38;;;;;;;14.97;10.57;;;5.20;90.00;;;;;;21173116;28;20692;-66
2023/04/10 05:11:40;;;;;;;17.17;10.50;;;5.30;90.10;;;;;;21173356;28;20234;-67
2023/04/10 05:21:42;;;;;;;15.60;10.30;;;5.50;90.30;;;;;;21172391;28;20231;-70
2023/04/10 05:31:45;;;;;;;17.03;10.77;;;5.70;90.20;;;;;;21171753;28;20681;-67
2023/04/10 05:41:47;;;;;;;16.33;10.67;;;6.00;90.20;;;;;;21171028;28;20240;-69
2023/04/10 05:51:49;;;;;;;16.77;11.03;;;6.20;90.30;;;;;;21170171;28;20233;-66
2023/04/10 06:01:51;;;;;;;19.20;11.33;;;;;;;;;;21169003;28;20230;-69
2023/04/10 06:11:53;;;;;;;17.17;11.73;;;6.80;90.30;;;;;;21168312;28;20238;-68
2023/04/10 06:21:55;;;;;;;18.13;11.63;;;7.10;90.20;;;;;;21167622;28;20685;-72
2023/04/10 06:31:56;;;;;;;17.83;12.27;;;7.40;89.90;;;;;;21166877;28;20253;-71
2023/04/10 06:48:32;;;;;;;18.00;12.33;;;8.10;89.30;;;;;;21068548;28;20575;-66
2023/04/10 06:58:34;;;;;;;20.10;13.67;;;8.20;88.40;;;;;;21067434;28;20260;-66
2023/04/10 07:08:35;;;;;;;19.10;13.37;;;8.60;88.40;;;;;;21067036;28;20205;-66
2023/04/10 07:18:39;;;;;;;19.83;13.53;;;;;;;;;;21065845;28;20585;-67
2023/04/10 07:28:41;;;;;;;20.37;13.47;;;9.60;87.20;;;;;;21064983;28;20214;-66
2023/04/10 07:38:43;;;;;;;16.20;12.27;;;10.20;85.70;;;;;;21064432;28;20596;-66
2023/04/10 07:48:46;;;;;;;17.77;12.53;;;10.60;84.90;;;;;;21063627;28;20220;-66
2023/04/10 07:58:48;;;;;;;15.67;11.57;;;11.00;84.40;;;;;;21012918;28;20214;-69
2023/04/10 08:08:51;;;;;;;16.50;11.73;;;11.10;83.30;;;;;;21006377;28;20210;-66
2023/04/10 08:18:55;;;;;;;15.07;11.13;;;11.30;82.70;;;;;;21005360;28;20218;-67
2023/04/10 08:28:58;;;;;;;15.60;11.50;;;11.70;81.60;;;;;;21004335;28;20689;-71
2023/04/10 08:39:00;;;;;;;14.73;10.70;;;12.00;80.60;;;;;;21003954;28;20372;-66
2023/04/10 08:49:04;;;;;;;14.23;10.60;;;12.20;79.40;;;;;;21002907;28;20687;-71
2023/04/10 08:59:07;;;;;;;15.23;10.40;;;12.50;78.20;;;;;;21002240;28;20254;-69
2023/04/10 09:09:08;;;;;;;13.67;10.33;;;12.60;78.80;;;;;;21000713;28;20228;-66
2023/04/10 09:19:10;;;;;;;12.50;9.37;;;12.90;75.70;;;;;;21000314;28;20207;-67
2023/04/10 09:29:12;;;;;;;11.13;8.83;;;13.20;72.50;;;;;;20999380;28;20227;-67
2023/04/10 09:39:14;;;;;;;12.37;8.97;;;13.50;70.90;;;;;;20999003;28;20277;-68
2023/04/10 09:49:16;;;;;;;12.77;8.70;;;13.70;69.50;;;;;;20997882;28;20229;-70
2023/04/10 09:59:18;;;;;;;12.03;8.53;;;13.90;68.30;;;;;;20997057;28;20207;-70
2023/04/10 10:09:20;;;;;;;11.27;8.73;;;13.90;68.90;;;;;;20997369;28;20231;-71
2023/04/10 10:19:44;;;;;;;9.80;7.90;;;14.30;66.40;;;;;;20995018;28;20211;-70
2023/04/10 10:29:47;;;;;;;8.07;6.77;;;14.50;65.30;;;;;;20997479;28;20621;-68
2023/04/10 10:40:16;;;;;;;10.13;7.77;;;14.60;65.70;;;;;;20994301;28;20232;-67
2023/04/10 10:50:17;;;;;;;7.83;6.03;;;15.00;62.10;;;;;;20994930;28;20231;-67
2023/04/10 11:00:21;;;;;;;7.00;5.80;;;15.30;59.20;;;;;;20994467;28;20203;-67
2023/04/10 11:11:06;;;;;;;6.03;5.43;;;15.50;57.80;;;;;;20994543;28;20232;-68
2023/04/10 11:21:21;;;;;;;7.00;5.87;;;15.60;57.00;;;;;;20993877;28;20631;-67
2023/04/10 11:31:23;;;;;;;8.17;6.17;;;15.70;56.60;;;;;;21001566;28;20234;-66
2023/04/10 11:41:30;;;;;;;7.97;6.40;;;15.80;57.00;;;;;;21008223;28;20240;-70
2023/04/10 11:51:32;;;;;;;8.50;6.23;;;16.00;56.50;;;;;;21007399;28;20317;-67
2023/04/10 12:01:34;;;;;;;7.47;5.90;;;16.50;55.50;;;;;;21006734;28;20563;-66
2023/04/10 12:11:36;;;;;;;10.13;6.60;;;16.60;55.90;;;;;;21005781;28;20322;-67
2023/04/10 12:21:41;;;;;;;7.53;6.13;;;16.90;55.30;;;;;;21005595;28;20218;-68
2023/04/10 12:31:43;;;;;;;5.67;4.97;;;17.20;54.30;;;;;;21004260;28;20241;-71
2023/04/10 12:41:45;;;;;;;5.47;4.70;;;17.50;53.20;;;;;;21003310;28;20239;-66
2023/04/10 12:51:48;;;;;;;5.13;4.63;;;17.80;51.70;;;;;;21003056;28;20239;-68
2023/04/10 13:01:50;;;;;;;5.03;4.40;;;18.30;49.30;;;;;;21001980;28;20207;-66
2023/04/10 13:11:52;;;;;;;3.53;2.93;;;18.40;49.40;;;;;;21001200;28;20243;-69
2023/04/10 13:21:53;;;;;;;5.67;3.40;;;18.90;47.80;;;;;;21000924;28;20256;-67
2023/04/10 13:31:55;;;;;;;3.57;3.17;;;19.60;45.60;;;;;;20999654;28;20651;-66
2023/04/10 13:41:58;;;;;;;3.23;2.80;;;19.80;42.90;;;;;;20998697;28;20642;-71
2023/04/10 13:52:00;;;;;;;4.83;3.10;;;19.70;43.20;;;;;;20997825;28;20242;-72
2023/04/10 14:02:01;;;;;;;4.57;2.70;;;21.10;40.40;;;;;;20998298;28;20568;-68
2023/04/10 14:12:03;;;;;;;2.90;2.70;;;21.50;39.80;;;;;;20998023;28;20653;-67
2023/04/10 14:22:05;;;;;;;2.77;2.57;;;21.70;39.80;;;;;;20997877;28;20216;-71
2023/04/10 14:32:07;;;;;;;3.30;2.93;;;21.70;38.20;;;;;;20995759;28;20236;-66
2023/04/10 14:42:09;;;;;;;3.10;2.80;;;22.30;37.20;;;;;;20995272;28;20315;-67
2023/04/10 14:52:11;;;;;;;3.13;2.83;;;;;;;;;;20994814;28;20239;-67
2023/04/10 15:02:14;;;;;;;3.80;3.40;;;;;;;;;;20997298;28;20221;-72
2023/04/10 15:15:44;;;;;;;3.93;3.53;;;;;;;;;;21152286;27;20494;-71
2023/04/10 15:25:46;;;;;;;3.50;3.20;;;23.20;35.30;;;;;;21151959;28;20235;-67
2023/04/10 15:35:50;;;;;;;5.87;3.50;;;21.60;36.50;;;;;;21150835;28;20214;-66
2023/04/10 15:45:52;;;;;;;3.80;3.40;;;21.10;37.20;;;;;;21149813;28;20579;-67
2023/04/10 15:55:54;;;;;;;3.60;3.30;;;20.90;37.40;;;;;;21149560;28;20212;-67
2023/04/10 16:05:58;;;;;;;3.70;3.23;;;20.40;37.50;;;;;;21148322;27;20668;-67
2023/04/10 16:16:00;;;;;;;3.40;3.10;;;20.20;38.10;;;;;;21147577;28;20214;-67
2023/04/10 16:26:02;;;;;;;3.40;2.90;;;20.40;37.60;;;;;;21096199;28;20964;-67
2023/04/10 16:36:04;;;;;;;3.97;2.93;;;20.40;37.50;;;;;;21090142;28;20215;-67
2023/04/10 16:46:06;;;;;;;3.80;2.97;;;19.90;38.30;;;;;;21089005;28;20661;-66
2023/04/10 16:56:08;;;;;;;3.33;3.03;;;19.20;38.60;;;;;;21088453;28;20217;-67
2023/04/10 17:06:10;;;;;;;6.60;3.13;;;18.60;39.10;;;;;;21087741;27;20597;-66
2023/04/10 17:16:11;;;;;;;4.23;3.20;;;18.40;39.80;;;;;;21086794;28;20208;-66
2023/04/10 17:26:14;;;;;;;3.77;3.07;;;18.00;40.60;;;;;;21085994;28;20246;-66
2023/04/10 17:36:16;;;;;;;3.73;3.20;;;17.60;41.10;;;;;;21084647;28;20234;-66
2023/04/10 17:46:18;;;;;;;3.70;3.10;;;16.70;41.60;;;;;;21084295;28;20317;-68
2023/04/10 17:56:20;;;;;;;3.77;3.30;;;16.70;42.10;;;;;;21083812;28;20215;-69
2023/04/10 18:06:22;;;;;;;6.13;4.67;;;16.50;42.70;;;;;;21083345;28;20653;-65
2023/04/10 18:16:24;;;;;;;4.90;3.77;;;16.00;43.10;;;;;;21080591;28;20211;-66
2023/04/10 18:26:28;;;;;;;4.50;3.60;;;15.80;43.50;;;;;;21080093;28;20272;-66
2023/04/10 18:36:30;;;;;;;5.67;3.97;;;15.80;44.10;;;;;;21080639;28;20619;-67
2023/04/10 18:46:32;;;;;;;5.00;4.03;;;15.70;44.70;;;;;;21077435;28;20231;-65
2023/04/10 18:56:34;;;;;;;7.90;4.53;;;15.60;46.70;;;;;;21078072;28;20210;-69
2023/04/10 19:06:38;;;;;;;6.50;4.90;;;15.40;46.00;;;;;;21076407;27;20297;-69
2023/04/10 19:16:40;;;;;;;7.30;4.63;;;15.20;46.10;;;;;;21076395;28;20214;-68
2023/04/10 19:26:41;;;;;;;6.87;4.93;;;15.10;46.50;;;;;;21075532;28;20226;-67
2023/04/10 19:36:43;;;;;;;6.23;5.00;;;15.00;46.80;;;;;;21075594;28;20271;-68
2023/04/10 19:46:47;;;;;;;6.13;4.77;;;14.90;47.30;;;;;;21074461;28;20349;-71
2023/04/10 19:56:49;;;;;;;7.43;4.97;;;14.80;47.50;;;;;;21062701;28;20255;-69
2023/04/10 20:06:50;;;;;;;7.00;5.00;;;14.70;47.80;;;;;;21089681;28;20646;-68
2023/04/10 20:16:52;;;;;;;6.97;4.70;;;14.70;48.20;;;;;;21088787;28;20202;-71
2023/04/10 20:26:54;;;;;;;6.67;5.03;;;14.70;48.50;;;;;;21087918;28;20750;-70
2023/04/10 20:36:55;;;;;;;6.33;5.10;;;14.60;48.90;;;;;;21087680;28;20718;-71
2023/04/10 20:46:57;;;;;;;6.73;4.77;;;14.50;49.10;;;;;;21086514;28;20261;-69
2023/04/10 20:57:00;;;;;;;8.17;5.20;;;14.50;49.60;;;;;;21085896;28;20207;-70
2023/04/10 21:07:02;;;;;;;6.27;4.70;;;14.40;50.00;;;;;;21084945;28;20234;-69
2023/04/10 21:17:04;;;;;;;6.20;4.60;;;14.40;50.20;;;;;;21084224;28;20214;-72
2023/04/10 21:27:06;;;;;;;6.80;4.93;;;14.30;50.30;;;;;;21083558;28;20223;-70
2023/04/10 21:37:08;;;;;;;5.40;4.43;;;14.40;50.40;;;;;;21084321;28;20212;-70
2023/04/10 21:47:09;;;;;;;5.73;4.33;;;14.30;50.50;;;;;;21083436;28;20234;-70
2023/04/10 21:57:11;;;;;;;5.47;4.40;;;14.30;50.40;;;;;;21083284;28;20395;-69
2023/04/10 22:07:13;;;;;;;7.20;3.80;;;14.30;50.60;;;;;;21082806;28;20234;-70
2023/04/10 22:17:15;;;;;;;6.03;4.03;;;14.30;50.90;;;;;;21081518;28;20257;-69
2023/04/10 22:27:16;;;;;;;6.60;4.10;;;14.30;51.40;;;;;;21081192;28;20237;-67
2023/04/10 22:37:18;;;;;;;4.17;3.30;;;14.30;51.10;;;;;;21081068;28;20199;-67
2023/04/10 22:47:20;;;;;;;4.90;3.30;;;14.20;51.30;;;;;;21079972;28;20226;-68
2023/04/10 22:57:21;;;;;;;4.27;3.43;;;14.10;51.40;;;;;;21061798;28;20269;-68
2023/04/10 23:07:24;;;;;;;4.00;3.13;;;14.20;51.60;;;;;;21061329;28;20242;-68
2023/04/10 23:17:26;;;;;;;4.87;3.50;;;14.20;51.90;;;;;;21078600;28;20210;-69
2023/04/10 23:27:27;;;;;;;5.80;2.80;;;15.20;53.20;;;;;;21078185;28;20277;-68
2023/04/10 23:37:32;;;;;;;3.23;2.80;;;14.20;51.80;;;;;;21094951;28;20211;-67
2023/04/10 23:47:34;;;;;;;3.33;2.90;;;14.20;52.00;;;;;;21093971;28;20244;-68
2023/04/10 23:57:36;;;;;;;3.07;2.77;;;14.20;52.20;;;;;;21093252;28;20275;-69
